Airfield :
LOGIN :

Register | Disclaimer

   EN    FR    IT 

 










Legend :    VFR   Marginal VFR   IFR   Intensive IFR   Very Intensive IFR
Visi :
Ceiling :
>= 8 km
>= 3000ft
5 to 8 km
1000 to 3000 ft
1500m to 5 km
500 to 1000 ft
800 to 1500m
200 to 500 ft
< 800m
< 200 ft
Symbols :   Thunderstorms  Fog  Heavy snow  Heavy precipitations  Wind > 20 kt
SIGMETs :     Misc.  Thunderstorms  Icing  Turbulence  Mountain Waves  Volcanic Ashes







- Airport Elevation : 100 ft


EBDT - Schaffen

CURRENT METAR :
  • 210818Z VRB01KT 8000 SKC M06/M06 Q1024 BLU BLU

EXPIRED METARs :
  • 210755Z 31004KT 7000 SKC M07/M08 Q1024 WHT WHT BECMG BLU
  • 210725Z VRB02KT 6000 SKC M07/M08 Q1023 WHT WHT BECMG BLU
  • 210655Z VRB01KT 6000 SKC M07/M07 Q1023 WHT WHT BECMG BLU
  • 210651Z 29003KT 6000 SKC M07/M07 Q1023 WHT WHT BECMG BLU
  • 210625Z VRB01KT 8000 SKC M07/M08 Q1023 BLU BLU
  • 210555Z VRB01KT 8000 SKC M06/M07 Q1023 BLU BLU
  • 210525Z 19003KT 9999 SKC M07/M07 Q1023 BLU BLU

TAF TAF EBDT
Valid from the 21 at 07:00 until the 21 at 16:00 UTC


210541Z 2107/2116 22002KT 9999 SKC
BECMG 2111/2113 6000 HZ
PROB40
TEMPO 2111/2115 3000 BR
No reported NOTAMs for that airfield.



MET'MAP, your aeronautical weather chart ! - Copyright ORBIFLY December 2007 - Disclaimer

ORBIFLY MET'MAP TEAM :

Programming & Development : Alexandra Zaïnal
Concept & Development : Baudouin d'Aumeries
Co-Development & Prog : Marc-Olivier Méhu
Technical & hardware support : Manuel Goepfert

Contact : metmap@orbifly.com




SOURCES & CREDITS :

   NOAA